createdAt,value
2023-01-20T00:01:12.337Z,7.10
2023-01-20T00:03:41.534Z,6.80
2023-01-20T00:06:09.565Z,7.80
2023-01-20T00:08:36.622Z,7.80
2023-01-20T00:11:07.882Z,7.70
2023-01-20T00:13:35.950Z,7.50
2023-01-20T00:16:07.575Z,8.20
2023-01-20T00:18:35.265Z,8.80
2023-01-20T00:21:06.654Z,8.70
2023-01-20T00:23:33.800Z,8.00
2023-01-20T00:26:09.000Z,8.20
2023-01-20T00:28:36.179Z,7.30
2023-01-20T00:31:20.368Z,8.70
2023-01-20T00:33:48.165Z,9.00
2023-01-20T00:36:15.974Z,9.30
2023-01-20T00:38:43.191Z,9.20
2023-01-20T00:41:10.494Z,8.50
2023-01-20T00:43:37.674Z,8.20
2023-01-20T00:46:05.048Z,9.20
2023-01-20T00:48:32.229Z,9.10
2023-01-20T00:50:59.382Z,7.20
2023-01-20T00:53:26.622Z,6.90
2023-01-20T00:55:53.743Z,9.30
2023-01-20T00:58:20.798Z,8.00
2023-01-20T01:00:48.812Z,7.60
2023-01-20T01:03:16.127Z,8.30
2023-01-20T01:05:43.679Z,8.30
2023-01-20T01:08:12.595Z,8.50
2023-01-20T01:10:40.544Z,8.70
2023-01-20T01:13:07.684Z,7.80
2023-01-20T01:15:34.713Z,7.80
2023-01-20T01:18:01.795Z,7.40
2023-01-20T01:20:29.164Z,9.00
2023-01-20T01:22:56.281Z,7.10
2023-01-20T01:25:23.475Z,7.10
2023-01-20T01:27:50.501Z,6.30
2023-01-20T01:30:17.655Z,6.80
2023-01-20T01:32:44.684Z,7.40
2023-01-20T01:35:12.268Z,7.40
2023-01-20T01:37:39.590Z,5.90
2023-01-20T01:40:07.780Z,6.40
2023-01-20T01:42:34.846Z,7.40
2023-01-20T01:45:11.490Z,6.80
2023-01-20T01:47:42.757Z,6.50
2023-01-20T01:50:12.678Z,8.10
2023-01-20T01:52:40.423Z,7.50
2023-01-20T01:55:07.855Z,6.90
2023-01-20T01:57:34.805Z,7.30
2023-01-20T02:00:02.624Z,7.50
2023-01-20T02:02:41.717Z,7.70
2023-01-20T02:05:09.317Z,7.20
2023-01-20T02:07:36.396Z,7.20
2023-01-20T02:10:03.558Z,6.60
2023-01-20T02:12:30.558Z,7.70
2023-01-20T02:14:58.850Z,8.60
2023-01-20T02:17:55.529Z,7.50
2023-01-20T02:20:25.522Z,8.60
2023-01-20T02:23:11.434Z,7.90
2023-01-20T02:26:20.302Z,8.30
2023-01-20T02:29:25.281Z,7.40
2023-01-20T02:32:09.206Z,7.40
2023-01-20T02:35:12.296Z,6.80
2023-01-20T02:37:43.505Z,7.10
2023-01-20T02:40:29.567Z,6.50
2023-01-20T02:43:30.029Z,7.00
2023-01-20T02:46:04.244Z,6.50
2023-01-20T02:48:40.080Z,7.20
2023-01-20T02:51:13.862Z,5.90
2023-01-20T02:54:11.500Z,7.00
2023-01-20T02:56:38.549Z,6.80
2023-01-20T02:59:09.014Z,6.50
2023-01-20T03:01:49.973Z,6.10
2023-01-20T03:04:20.033Z,6.90
2023-01-20T03:06:48.703Z,6.30
2023-01-20T03:09:18.825Z,6.80
2023-01-20T03:11:51.871Z,6.40
2023-01-20T03:14:18.948Z,6.50
2023-01-20T03:16:48.499Z,6.40
2023-01-20T03:19:15.491Z,6.80
2023-01-20T03:21:42.489Z,7.00
2023-01-20T03:24:09.550Z,6.40
2023-01-20T03:26:37.084Z,6.90
2023-01-20T03:29:09.652Z,6.40
2023-01-20T03:31:41.583Z,6.10
2023-01-20T03:36:38.591Z,5.90
2023-01-20T03:39:07.205Z,6.00
2023-01-20T03:41:43.347Z,6.60
2023-01-20T03:44:16.928Z,6.60
2023-01-20T03:47:20.537Z,6.80
2023-01-20T03:50:03.055Z,6.70
2023-01-20T03:52:46.560Z,6.50
2023-01-20T03:55:51.240Z,6.00
2023-01-20T03:58:21.436Z,6.40
2023-01-20T04:00:49.153Z,5.90
2023-01-20T04:03:21.909Z,5.20
2023-01-20T04:05:49.090Z,6.10
2023-01-20T04:08:17.247Z,6.00
2023-01-20T04:10:45.686Z,5.90
2023-01-20T04:13:12.730Z,6.90
2023-01-20T04:15:42.455Z,6.20
2023-01-20T04:18:16.176Z,5.70
2023-01-20T04:20:44.538Z,7.80
2023-01-20T04:23:32.832Z,6.40
2023-01-20T04:25:59.870Z,6.70
2023-01-20T04:28:26.945Z,6.40
2023-01-20T04:30:54.128Z,6.40
2023-01-20T04:33:21.357Z,5.40
2023-01-20T04:35:48.363Z,6.30
2023-01-20T04:38:15.503Z,6.80
2023-01-20T04:40:42.553Z,5.50
2023-01-20T04:43:10.481Z,5.60
2023-01-20T04:45:37.452Z,5.80
2023-01-20T04:48:08.657Z,6.30
2023-01-20T04:50:42.143Z,5.30
2023-01-20T04:53:13.938Z,6.00
2023-01-20T04:55:40.944Z,5.70
2023-01-20T04:58:10.000Z,5.10
2023-01-20T05:00:37.083Z,5.50
2023-01-20T05:03:04.166Z,5.10
2023-01-20T05:05:31.354Z,5.70
2023-01-20T05:07:59.810Z,5.70
2023-01-20T05:10:26.810Z,5.20
2023-01-20T05:12:53.814Z,5.30
2023-01-20T05:15:20.817Z,5.40
2023-01-20T05:17:47.781Z,5.10
2023-01-20T05:32:34.907Z,5.80
2023-01-20T05:35:02.491Z,5.70
2023-01-20T05:37:29.531Z,4.80
2023-01-20T05:39:58.683Z,5.20
2023-01-20T05:42:25.655Z,4.70
2023-01-20T05:44:54.884Z,5.50
2023-01-20T05:47:21.878Z,5.40
2023-01-20T05:49:48.899Z,5.10
2023-01-20T05:52:15.891Z,4.80
2023-01-20T05:54:42.833Z,5.70
2023-01-20T05:57:09.845Z,6.00
2023-01-20T05:59:37.052Z,5.50
2023-01-20T06:02:04.066Z,5.80
2023-01-20T06:04:31.087Z,6.40
2023-01-20T06:06:58.065Z,4.70
2023-01-20T06:09:25.065Z,5.80
2023-01-20T06:11:52.009Z,5.60
2023-01-20T06:14:19.108Z,5.60
2023-01-20T06:16:46.172Z,5.40
2023-01-20T06:19:13.422Z,6.10
2023-01-20T06:21:40.405Z,6.10
2023-01-20T06:24:08.565Z,6.30
2023-01-20T06:26:35.581Z,5.60
2023-01-20T06:29:02.622Z,5.90
2023-01-20T06:31:29.665Z,5.20
2023-01-20T06:33:56.787Z,5.80
2023-01-20T06:36:23.784Z,6.40
2023-01-20T06:38:51.256Z,5.80
2023-01-20T06:41:18.908Z,5.70
2023-01-20T06:43:45.921Z,5.10
2023-01-20T06:46:14.384Z,5.60
2023-01-20T06:48:42.150Z,5.90
2023-01-20T06:51:14.335Z,4.80
2023-01-20T06:53:41.451Z,5.50
2023-01-20T06:56:14.056Z,5.60
2023-01-20T06:58:41.116Z,5.70
2023-01-20T07:01:14.215Z,5.60
2023-01-20T07:03:44.748Z,4.90
2023-01-20T07:06:28.995Z,5.40
2023-01-20T07:08:58.553Z,5.40
2023-01-20T07:11:26.446Z,4.90
2023-01-20T07:13:53.383Z,5.20
2023-01-20T07:16:20.492Z,5.30
2023-01-20T07:18:48.604Z,5.60
2023-01-20T07:21:15.613Z,5.30
2023-01-20T07:23:42.644Z,5.50
2023-01-20T07:26:11.066Z,5.40
2023-01-20T07:28:38.188Z,5.30
2023-01-20T07:31:09.472Z,5.80
2023-01-20T07:33:36.660Z,5.30
2023-01-20T07:36:04.122Z,5.60
2023-01-20T07:38:31.094Z,5.40
2023-01-20T07:41:04.708Z,5.50
2023-01-20T07:43:32.149Z,6.10
2023-01-20T07:46:03.347Z,6.20
2023-01-20T07:48:31.659Z,6.10
2023-01-20T07:51:03.386Z,6.10
2023-01-20T07:53:30.914Z,6.40
2023-01-20T07:56:01.061Z,6.50
2023-01-20T07:58:29.164Z,7.10
2023-01-20T08:00:57.973Z,7.20
2023-01-20T08:03:27.344Z,7.30
2023-01-20T08:05:54.455Z,6.50
2023-01-20T08:08:21.482Z,7.10
2023-01-20T08:10:54.369Z,6.50
2023-01-20T08:13:21.397Z,7.50
2023-01-20T08:15:48.361Z,7.50
2023-01-20T08:18:15.360Z,7.00
2023-01-20T08:20:43.635Z,7.20
2023-01-20T08:23:10.581Z,7.30
2023-01-20T08:25:37.649Z,7.10
2023-01-20T08:28:05.580Z,7.00
2023-01-20T08:30:32.810Z,8.30
2023-01-20T08:33:00.000Z,8.60
2023-01-20T08:35:27.075Z,8.60
2023-01-20T08:37:54.028Z,7.50
2023-01-20T08:40:21.118Z,7.90
2023-01-20T08:42:48.127Z,7.90
2023-01-20T08:45:15.377Z,7.00
2023-01-20T08:47:46.296Z,7.10
2023-01-20T08:50:14.360Z,7.50
2023-01-20T08:52:42.255Z,7.10
2023-01-20T08:55:09.810Z,7.10
2023-01-20T08:57:36.898Z,6.60
2023-01-20T09:00:05.727Z,6.70
2023-01-20T09:02:32.728Z,6.50
2023-01-20T09:05:00.090Z,6.50
2023-01-20T09:07:27.418Z,6.90
2023-01-20T09:09:54.412Z,7.00
2023-01-20T09:12:21.401Z,7.20
2023-01-20T09:14:48.467Z,6.50
2023-01-20T09:17:15.415Z,6.60
2023-01-20T09:19:42.403Z,6.60
2023-01-20T09:22:09.370Z,6.00
2023-01-20T09:24:36.365Z,6.00
2023-01-20T09:27:03.464Z,6.20
2023-01-20T09:29:30.503Z,6.80
2023-01-20T09:32:00.457Z,6.80
2023-01-20T09:34:29.644Z,5.90
2023-01-20T09:36:58.474Z,5.90
2023-01-20T09:39:44.103Z,5.60
2023-01-20T09:42:58.727Z,5.60
2023-01-20T09:45:33.254Z,6.20
2023-01-20T09:48:35.511Z,6.20
2023-01-20T09:51:22.553Z,6.20
2023-01-20T09:54:00.772Z,6.60
2023-01-20T09:56:27.865Z,5.70
2023-01-20T09:59:02.359Z,5.60
2023-01-20T10:01:39.202Z,5.40
2023-01-20T10:04:12.433Z,5.80
2023-01-20T10:06:57.663Z,6.40
2023-01-20T10:09:36.608Z,6.30
2023-01-20T10:12:11.512Z,7.10
2023-01-20T10:14:55.525Z,6.00
2023-01-20T10:17:31.167Z,5.60
2023-01-20T10:20:16.088Z,7.10
2023-01-20T10:22:47.049Z,6.30
2023-01-20T10:25:28.807Z,7.30
2023-01-20T10:27:58.212Z,6.30
2023-01-20T10:30:26.984Z,6.00
2023-01-20T10:33:10.269Z,5.80
2023-01-20T10:35:52.092Z,6.00
2023-01-20T10:38:22.173Z,6.00
2023-01-20T10:40:56.001Z,6.30
2023-01-20T10:43:23.015Z,6.40
2023-01-20T10:46:17.601Z,6.00
2023-01-20T10:49:19.194Z,6.30
2023-01-20T10:51:48.290Z,6.70
2023-01-20T10:54:37.540Z,6.20
2023-01-20T10:57:06.241Z,6.00
2023-01-20T10:59:44.972Z,5.70
2023-01-20T11:02:26.027Z,5.60
2023-01-20T11:05:19.950Z,6.20
2023-01-20T11:07:47.256Z,6.00
2023-01-20T11:10:22.207Z,6.30
2023-01-20T11:12:52.253Z,6.10
2023-01-20T11:15:23.392Z,5.80
2023-01-20T11:18:16.200Z,4.60
2023-01-20T11:20:48.102Z,5.20
2023-01-20T11:23:39.679Z,5.60
2023-01-20T11:26:28.037Z,5.50
2023-01-20T11:28:58.492Z,5.60
2023-01-20T11:32:04.326Z,5.40
2023-01-20T11:34:35.772Z,4.50
2023-01-20T11:37:05.477Z,5.30
2023-01-20T11:39:45.250Z,5.10
2023-01-20T11:42:16.586Z,4.90
2023-01-20T11:45:19.831Z,5.70
2023-01-20T11:48:19.531Z,5.40
2023-01-20T11:50:58.569Z,5.50
2023-01-20T11:53:27.655Z,4.80
2023-01-20T11:55:59.597Z,5.20
2023-01-20T12:01:05.730Z,5.20
2023-01-20T12:03:54.751Z,4.50
2023-01-20T12:19:02.272Z,4.50
2023-01-20T12:21:35.026Z,4.60
2023-01-20T12:24:42.385Z,5.10
2023-01-20T12:27:14.003Z,5.00
2023-01-20T12:29:44.976Z,5.40
2023-01-20T12:32:11.995Z,4.80
2023-01-20T12:34:39.020Z,4.00
2023-01-20T12:37:45.366Z,4.60
2023-01-20T12:40:38.521Z,4.70
2023-01-20T12:43:24.313Z,4.90
2023-01-20T12:46:36.387Z,4.90
2023-01-20T12:49:32.732Z,4.60
2023-01-20T12:52:25.764Z,4.80
2023-01-20T12:55:26.451Z,4.40
2023-01-20T12:57:56.618Z,4.50
2023-01-20T13:00:36.013Z,4.00
2023-01-20T13:03:15.411Z,4.50
2023-01-20T13:06:19.981Z,4.60
2023-01-20T13:09:21.727Z,4.90
2023-01-20T13:12:03.351Z,4.10
2023-01-20T13:15:18.495Z,4.90
2023-01-20T13:18:01.243Z,5.00
2023-01-20T13:20:28.705Z,4.50
2023-01-20T13:22:56.400Z,4.90
2023-01-20T13:25:23.519Z,4.30
2023-01-20T13:27:51.834Z,4.30
2023-01-20T13:30:37.560Z,4.40
2023-01-20T13:33:08.625Z,5.10
2023-01-20T13:35:49.972Z,4.90
2023-01-20T13:38:33.247Z,5.30
2023-01-20T13:41:03.634Z,4.80
2023-01-20T13:43:49.311Z,5.10
2023-01-20T13:46:17.186Z,4.30
2023-01-20T13:49:06.329Z,4.60
2023-01-20T13:51:36.359Z,4.70
2023-01-20T13:54:25.622Z,4.70
2023-01-20T13:56:52.881Z,4.90
2023-01-20T13:59:20.072Z,4.50
2023-01-20T14:01:47.107Z,4.50
2023-01-20T14:04:19.073Z,4.60
2023-01-20T14:09:23.930Z,5.80
2023-01-20T14:11:55.612Z,6.20
2023-01-20T14:14:24.741Z,6.70
2023-01-20T14:16:52.481Z,7.30
2023-01-20T14:19:34.161Z,7.60
2023-01-20T14:22:16.857Z,7.30
2023-01-20T14:24:45.208Z,6.80
2023-01-20T14:27:23.420Z,7.90
2023-01-20T14:29:52.251Z,8.20
2023-01-20T14:32:25.920Z,8.40
2023-01-20T14:34:53.050Z,9.00
2023-01-20T14:37:34.668Z,8.60
2023-01-20T14:40:31.194Z,9.10
2023-01-20T14:43:08.149Z,8.20
2023-01-20T14:45:35.450Z,9.30
2023-01-20T14:48:02.896Z,8.80
2023-01-20T14:50:30.281Z,8.60
2023-01-20T14:52:57.310Z,8.20
2023-01-20T14:55:37.087Z,9.00
2023-01-20T14:58:13.860Z,8.70
2023-01-20T15:00:48.044Z,9.30
2023-01-20T15:03:17.297Z,9.10
2023-01-20T15:06:00.666Z,9.20
2023-01-20T15:08:42.937Z,10.10
2023-01-20T15:11:14.347Z,8.80
2023-01-20T15:13:45.036Z,9.10
2023-01-20T15:16:29.002Z,9.00
2023-01-20T15:19:20.904Z,10.20
2023-01-20T15:21:49.413Z,9.40
2023-01-20T15:24:21.096Z,10.00
2023-01-20T15:29:22.825Z,9.50
2023-01-20T15:31:50.527Z,9.70
2023-01-20T15:34:18.181Z,9.30
2023-01-20T15:36:45.947Z,10.00
2023-01-20T15:39:23.150Z,9.70
2023-01-20T15:41:55.991Z,9.90
2023-01-20T15:44:24.644Z,10.00
2023-01-20T15:46:52.067Z,10.10
2023-01-20T15:49:19.143Z,10.30
2023-01-20T15:51:46.318Z,10.90
2023-01-20T15:54:16.185Z,11.40
2023-01-20T15:56:43.330Z,11.20
2023-01-20T15:59:22.712Z,10.90
2023-01-20T16:01:50.610Z,10.90
2023-01-20T16:04:17.744Z,11.00
2023-01-20T16:06:44.718Z,11.40
2023-01-20T16:09:27.671Z,12.10
2023-01-20T16:11:54.741Z,11.90
2023-01-20T16:14:22.114Z,11.10
2023-01-20T16:16:49.106Z,11.70
2023-01-20T16:19:16.085Z,11.70
2023-01-20T16:21:45.382Z,11.80
2023-01-20T16:24:12.862Z,12.20
2023-01-20T16:26:39.809Z,12.70
2023-01-20T16:29:08.847Z,12.40
2023-01-20T16:31:35.970Z,12.50
2023-01-20T16:34:04.520Z,12.50
2023-01-20T16:36:31.507Z,11.80
2023-01-20T16:38:58.484Z,12.00
2023-01-20T16:41:30.743Z,12.70
2023-01-20T16:43:58.685Z,12.30
2023-01-20T16:46:29.611Z,12.20
2023-01-20T16:49:05.401Z,12.80
2023-01-20T16:51:32.847Z,12.50
2023-01-20T16:53:59.901Z,11.90
2023-01-20T16:56:28.711Z,12.20
2023-01-20T16:58:57.946Z,12.10
2023-01-20T17:01:25.417Z,12.00
2023-01-20T17:03:55.027Z,12.90
2023-01-20T17:06:23.941Z,13.30
2023-01-20T17:08:53.719Z,11.20
2023-01-20T17:11:41.451Z,11.20
2023-01-20T17:14:09.651Z,12.60
2023-01-20T17:16:36.882Z,13.40
2023-01-20T17:19:04.029Z,12.80
2023-01-20T17:21:32.495Z,12.00
2023-01-20T17:24:01.069Z,12.80
2023-01-20T17:26:28.161Z,12.50
2023-01-20T17:28:56.038Z,12.90
2023-01-20T17:31:23.333Z,13.30
2023-01-20T17:33:51.196Z,12.60
2023-01-20T17:36:21.469Z,11.60
2023-01-20T17:38:48.569Z,12.30
2023-01-20T17:41:17.323Z,11.90
2023-01-20T17:43:48.255Z,12.10
2023-01-20T17:46:18.771Z,11.30
2023-01-20T17:48:47.001Z,12.60
2023-01-20T17:51:18.960Z,12.30
2023-01-20T17:56:13.956Z,12.10
2023-01-20T17:58:42.404Z,11.80
2023-01-20T18:01:29.183Z,12.20
2023-01-20T18:03:56.863Z,12.40
2023-01-20T18:06:24.622Z,11.60
2023-01-20T18:08:56.666Z,12.70
2023-01-20T18:13:52.357Z,11.50
2023-01-20T18:16:20.588Z,12.20
2023-01-20T18:18:47.953Z,12.80
2023-01-20T18:21:20.434Z,12.90
2023-01-20T18:23:48.322Z,13.20
2023-01-20T18:26:16.523Z,13.30
2023-01-20T18:28:43.653Z,12.90
2023-01-20T18:31:15.237Z,13.50
2023-01-20T18:33:47.728Z,13.90
2023-01-20T18:36:17.557Z,15.80
2023-01-20T18:38:48.642Z,16.10
2023-01-20T18:41:15.641Z,14.50
2023-01-20T18:43:42.593Z,14.70
2023-01-20T18:46:09.876Z,15.00
2023-01-20T18:48:40.937Z,16.80
2023-01-20T18:51:08.730Z,15.70
2023-01-20T18:53:35.885Z,16.70
2023-01-20T18:56:04.915Z,17.60
2023-01-20T18:58:33.280Z,16.00
2023-01-20T19:01:11.121Z,17.00
2023-01-20T19:03:38.947Z,17.80
2023-01-20T19:06:13.157Z,18.00
2023-01-20T19:08:40.539Z,17.80
2023-01-20T19:11:15.967Z,17.20
2023-01-20T19:13:43.964Z,18.60
2023-01-20T19:16:13.316Z,18.70
2023-01-20T19:18:41.431Z,18.00
2023-01-20T19:21:13.499Z,18.80
2023-01-20T19:26:10.025Z,17.70
2023-01-20T19:28:37.109Z,19.00
2023-01-20T19:31:08.282Z,18.40
2023-01-20T19:33:35.928Z,18.60
2023-01-20T19:36:04.815Z,20.00
2023-01-20T19:38:31.979Z,21.00
2023-01-20T19:41:09.934Z,19.00
2023-01-20T19:43:37.247Z,19.90
2023-01-20T19:46:11.529Z,19.90
2023-01-20T19:48:38.830Z,19.70
2023-01-20T19:51:07.830Z,21.40
2023-01-20T19:53:35.054Z,20.10
2023-01-20T19:56:09.789Z,21.20
2023-01-20T19:58:37.081Z,21.00
2023-01-20T20:01:13.822Z,21.50
2023-01-20T20:03:41.168Z,22.90
2023-01-20T20:06:08.903Z,22.50
2023-01-20T20:08:36.744Z,20.60
2023-01-20T20:23:30.440Z,22.90
2023-01-20T20:25:57.839Z,21.40
2023-01-20T20:28:29.136Z,22.30
2023-01-20T20:31:04.041Z,22.00
2023-01-20T20:33:31.082Z,22.80
2023-01-20T20:35:58.368Z,21.80
2023-01-20T20:38:25.471Z,22.70
2023-01-20T20:40:59.263Z,22.40
2023-01-20T20:43:26.529Z,22.00
2023-01-20T20:45:53.565Z,21.60
2023-01-20T20:48:20.781Z,21.90
2023-01-20T20:50:47.909Z,22.00
2023-01-20T20:53:15.396Z,22.50
2023-01-20T20:55:42.799Z,22.00
2023-01-20T20:58:09.884Z,22.30
2023-01-20T21:00:37.669Z,22.70
2023-01-20T21:03:07.655Z,22.50
2023-01-20T21:05:35.545Z,22.00
2023-01-20T21:08:06.249Z,21.90
2023-01-20T21:10:33.406Z,21.90
2023-01-20T21:13:00.418Z,22.40
2023-01-20T21:15:27.487Z,21.60
2023-01-20T21:17:54.543Z,22.60
2023-01-20T21:20:22.071Z,22.10
2023-01-20T21:22:49.131Z,22.10
2023-01-20T21:25:17.992Z,22.30
2023-01-20T21:27:45.034Z,23.40
2023-01-20T21:30:13.630Z,22.20
2023-01-20T21:32:42.103Z,22.20
2023-01-20T21:35:09.874Z,21.50
2023-01-20T21:37:37.465Z,21.60
2023-01-20T21:40:06.106Z,21.30
2023-01-20T21:42:33.117Z,22.00
2023-01-20T21:45:00.727Z,22.50
2023-01-20T21:47:28.374Z,23.10
2023-01-20T21:50:14.232Z,21.80
2023-01-20T21:52:41.521Z,21.30
2023-01-20T21:55:13.110Z,22.00
2023-01-20T21:57:40.127Z,22.60
2023-01-20T22:00:08.836Z,20.60
2023-01-20T22:02:39.467Z,21.20
2023-01-20T22:05:11.134Z,22.70
2023-01-20T22:07:39.824Z,20.80
2023-01-20T22:10:08.392Z,21.20
2023-01-20T22:12:35.882Z,22.30
2023-01-20T22:15:03.643Z,22.30
2023-01-20T22:17:30.750Z,22.60
2023-01-20T22:19:59.648Z,22.20
2023-01-20T22:22:28.793Z,21.60
2023-01-20T22:24:55.963Z,23.20
2023-01-20T22:27:23.057Z,24.00
2023-01-20T22:29:50.058Z,23.20
2023-01-20T22:32:17.006Z,24.00
2023-01-20T22:34:44.040Z,23.50
2023-01-20T22:37:11.106Z,24.10
2023-01-20T22:39:38.105Z,23.60
2023-01-20T22:42:05.128Z,23.20
2023-01-20T22:44:32.165Z,23.50
2023-01-20T22:46:59.441Z,24.30
2023-01-20T22:49:26.534Z,24.40
2023-01-20T22:51:55.429Z,24.50
2023-01-20T22:54:22.451Z,24.90
2023-01-20T22:56:49.444Z,25.30
2023-01-20T22:59:16.429Z,27.00
2023-01-20T23:01:46.356Z,23.20
2023-01-20T23:04:13.369Z,25.50
2023-01-20T23:06:42.481Z,27.10
2023-01-20T23:09:11.352Z,27.60
2023-01-20T23:11:40.365Z,25.70
2023-01-20T23:14:09.883Z,25.80
2023-01-20T23:16:36.963Z,25.90
2023-01-20T23:19:04.652Z,26.60
2023-01-20T23:21:31.810Z,26.20
2023-01-20T23:23:58.949Z,25.40
2023-01-20T23:26:28.629Z,28.00
2023-01-20T23:28:56.362Z,27.60
2023-01-20T23:31:25.385Z,26.90
2023-01-20T23:33:53.660Z,27.50
2023-01-20T23:36:25.158Z,26.00
2023-01-20T23:38:55.996Z,21.10
2023-01-20T23:41:23.143Z,29.20
2023-01-20T23:43:50.144Z,27.30
2023-01-20T23:46:17.185Z,27.60
2023-01-20T23:48:47.456Z,27.40
2023-01-20T23:51:14.736Z,27.30
2023-01-20T23:53:41.877Z,29.10
2023-01-20T23:56:19.746Z,25.60
2023-01-20T23:58:46.847Z,27.50
